Time;durP1;ratioP1;P1;durP2;ratioP2;P2;SDS_P1;SDS_P2;PMS_P1;PMS_P2;Temp;Humidity;BMP_temperature;BMP_pressure;BME280_temperature;BME280_humidity;BME280_pressure;Samples;Min_cycle;Max_cycle;Signal;HPM_P1;HPM_P2
2023/09/02 00:01:26;;;;;;;52.40;3.30;;;;;;;23.66;57.73;99520.47;7308148;19;130003;-36
2023/09/02 00:03:51;;;;;;;75.63;4.65;;;;;;;23.52;57.40;99497.44;7308879;19;129671;-35
2023/09/02 00:06:17;;;;;;;71.90;4.20;;;;;;;23.63;57.56;99526.88;7306401;19;129235;-33
2023/09/02 00:08:42;;;;;;;100.57;5.60;;;;;;;23.64;57.12;99518.00;7307498;19;129159;-37
2023/09/02 00:11:08;;;;;;;182.13;10.70;;;;;;;23.64;57.43;99528.50;7300600;19;130710;-36
2023/09/02 00:13:33;;;;;;;69.70;4.20;;;;;;;23.67;58.00;99528.19;7308221;19;131456;-35
2023/09/02 00:15:59;;;;;;;50.88;3.33;;;;;;;23.65;57.64;99524.91;7307300;19;129234;-33
2023/09/02 00:18:24;;;;;;;85.63;4.87;;;;;;;23.65;57.99;99524.91;7307263;19;130100;-38
2023/09/02 00:20:49;;;;;;;40.20;2.63;;;;;;;23.66;57.32;99529.19;7306877;19;130699;-39
2023/09/02 00:23:15;;;;;;;72.53;4.13;;;;;;;23.66;57.29;99529.19;7305180;19;129727;-36
2023/09/02 00:25:40;;;;;;;84.90;5.20;;;;;;;23.63;57.55;99520.78;7305331;19;129584;-36
2023/09/02 00:28:05;;;;;;;98.13;5.47;;;;;;;23.64;57.52;99517.19;7305359;19;131574;-37
2023/09/02 00:30:31;;;;;;;69.57;4.23;;;;;;;23.53;58.08;99505.16;7305787;19;129748;-35
2023/09/02 00:32:56;;;;;;;66.27;4.17;;;;;;;23.66;57.93;99526.56;7304420;19;129105;-37
2023/09/02 00:35:21;;;;;;;73.70;4.47;;;;;;;23.63;57.83;99532.13;7306014;19;129573;-35
2023/09/02 00:37:47;;;;;;;70.47;4.23;;;;;;;23.66;57.26;99534.44;7305583;19;129705;-38
2023/09/02 00:40:15;;;;;;;71.53;4.53;;;;;;;23.63;57.64;99537.38;7300932;19;130821;-34
2023/09/02 00:42:42;;;;;;;53.10;3.35;;;;;;;23.65;57.49;99531.97;7305022;19;128952;-31
2023/09/02 00:45:08;;;;;;;79.32;4.63;;;;;;;23.64;57.71;99531.13;7304003;19;129011;-35
2023/09/02 00:47:33;;;;;;;162.97;9.90;;;;;;;23.64;57.98;99528.50;7303113;19;130438;-39
2023/09/02 00:50:00;;;;;;;51.97;3.17;;;;;;;23.64;57.70;99528.50;7303432;19;130896;-33
2023/09/02 00:52:25;;;;;;;77.97;4.35;;;;;;;23.65;58.16;99532.78;7304887;19;129577;-35
2023/09/02 00:54:50;;;;;;;71.03;4.23;;;;;;;23.66;57.69;99536.22;7304743;19;130393;-34
2023/09/02 00:57:16;;;;;;;80.90;4.87;;;;;;;23.67;57.77;99536.06;7306603;19;129008;-33
2023/09/02 00:59:41;;;;;;;55.33;3.50;;;;;;;23.65;57.47;99545.91;7302298;19;129856;-34
2023/09/02 01:02:08;;;;;;;62.07;3.73;;;;;;;23.63;57.53;99534.75;7306427;19;129291;-31
2023/09/02 01:04:34;;;;;;;80.22;4.47;;;;;;;23.67;57.73;99543.16;7301150;19;129191;-36
2023/09/02 01:07:01;;;;;;;59.53;3.70;;;;;;;23.67;57.81;99549.19;7306210;19;129253;-33
2023/09/02 01:09:27;;;;;;;62.28;4.00;;;;;;;23.66;57.34;99542.31;7304062;19;130724;-33
2023/09/02 01:11:52;;;;;;;56.73;3.53;;;;;;;23.68;57.54;99535.13;7301854;19;129412;-38
2023/09/02 01:14:18;;;;;;;112.67;6.13;;;;;;;23.67;57.50;99528.19;7305572;19;129323;-32
2023/09/02 01:16:44;;;;;;;35.80;2.58;;;;;;;23.67;57.26;99537.91;7303248;19;130820;-34
2023/09/02 01:19:14;;;;;;;57.23;3.33;;;;;;;23.66;57.86;99537.06;7303650;19;129973;-37
2023/09/02 01:21:49;;;;;;;61.92;3.80;;;;;;;23.64;57.30;99533.75;7301888;19;129631;-32
2023/09/02 01:24:43;;;;;;;79.93;4.60;;;;;;;23.56;58.91;99527.63;7320426;19;129582;-36
2023/09/02 01:27:16;;;;;;;75.35;4.53;;;;;;;23.66;58.60;99547.56;7314720;19;131269;-37
2023/09/02 01:29:55;;;;;;;98.13;5.60;;;;;;;23.66;59.18;99547.56;7314356;19;129746;-35
2023/09/02 01:32:22;;;;;;;116.60;6.68;;;;;;;23.66;58.11;99544.94;7315106;19;130015;-37
2023/09/02 01:34:48;;;;;;;50.80;3.40;;;;;;;23.65;57.60;99551.16;7319256;19;129029;-34
2023/09/02 01:37:17;;;;;;;170.97;10.20;;;;;;;23.64;57.75;99548.69;7312495;19;129722;-37
2023/09/02 01:39:45;;;;;;;60.88;3.83;;;;;;;23.66;57.82;99552.81;7316511;19;130409;-35
2023/09/02 01:42:12;;;;;;;86.32;5.10;;;;;;;23.67;57.28;99553.66;7321210;19;129522;-36
2023/09/02 01:44:39;;;;;;;95.40;5.72;;;;;;;23.65;57.90;99556.41;7316035;19;129377;-35
2023/09/02 01:47:05;;;;;;;77.53;4.65;;;;;;;23.69;57.64;99556.91;7318679;19;130259;-37
2023/09/02 01:49:32;;;;;;;71.83;4.40;;;;;;;23.68;57.23;99556.13;7315995;19;129664;-37
2023/09/02 01:51:58;;;;;;;101.13;5.93;;;;;;;23.55;57.81;99534.66;7318191;19;129848;-36
2023/09/02 01:54:25;;;;;;;58.55;3.88;;;;;;;23.66;57.36;99558.06;7317975;19;129191;-35
2023/09/02 01:56:50;;;;;;;;;;;;;;;23.68;59.34;99560.53;7318906;19;129387;-36
2023/09/02 01:59:16;;;;;;;65.75;4.13;;;;;;;23.59;57.95;99543.91;7315493;19;130844;-35
2023/09/02 02:01:41;;;;;;;118.07;6.77;;;;;;;23.66;57.54;99557.22;7319835;19;128972;-37
2023/09/02 02:04:24;;;;;;;76.30;5.00;;;;;;;23.66;58.85;99557.22;7318435;19;129501;-38
2023/09/02 02:06:53;;;;;;;54.72;3.95;;;;;;;23.65;57.80;99551.16;7319711;19;130003;-35
2023/09/02 02:09:33;;;;;;;110.18;7.15;;;;;;;23.62;59.00;99546.22;7314973;19;130199;-32
2023/09/02 02:12:00;;;;;;;74.03;4.65;;;;;;;23.65;58.11;99556.41;7319279;19;129234;-37
2023/09/02 02:14:30;;;;;;;160.02;9.73;;;;;;;23.63;58.13;99561.00;7315688;19;129991;-38
2023/09/02 02:16:56;;;;;;;105.07;6.38;;;;;;;23.65;58.28;99563.47;7319051;19;129588;-35
2023/09/02 02:19:21;;;;;;;71.10;4.43;;;;;;;23.65;58.11;99566.91;7318888;19;129939;-37
2023/09/02 02:21:47;;;;;;;71.50;4.70;;;;;;;23.64;57.62;99575.75;7315164;19;131131;-37
2023/09/02 02:24:13;;;;;;;89.97;5.17;;;;;;;23.68;57.99;99565.78;7318301;19;128897;-35
2023/09/02 02:26:38;;;;;;;187.98;11.65;;;;;;;23.67;57.39;99570.19;7316260;19;130898;-35
2023/09/02 02:29:03;;;;;;;71.10;4.47;;;;;;;23.54;57.50;99564.53;7316513;19;129593;-36
2023/09/02 02:31:29;;;;;;;52.47;3.57;;;;;;;23.53;58.19;99552.41;7317875;19;129400;-34
2023/09/02 02:33:54;;;;;;;100.60;6.77;;;;;;;23.64;58.13;99565.25;7308617;19;128886;-36
2023/09/02 02:36:19;;;;;;;61.57;3.90;;;;;;;23.54;57.58;99553.19;7311924;19;130012;-36
2023/09/02 02:38:45;;;;;;;70.77;4.33;;;;;;;23.69;57.87;99583.16;7306946;19;129841;-38
2023/09/02 02:41:10;;;;;;;56.13;4.07;;;;;;;23.66;57.85;99572.97;7307237;19;129611;-37
2023/09/02 02:43:35;;;;;;;124.03;7.10;;;;;;;23.66;57.81;99583.47;7305954;19;129276;-37
2023/09/02 02:46:01;;;;;;;67.53;4.50;;;;;;;23.67;58.10;99579.91;7309064;19;130032;-37
2023/09/02 02:48:29;;;;;;;81.53;5.23;;;;;;;23.65;58.19;99595.75;7305692;19;130784;-35
2023/09/02 02:50:55;;;;;;;88.70;6.00;;;;;;;23.56;57.67;99573.06;7305844;19;129515;-36
2023/09/02 02:53:21;;;;;;;181.90;10.83;;;;;;;23.64;58.07;99596.75;7305716;19;129219;-37
2023/09/02 02:55:46;;;;;;;96.87;6.23;;;;;;;23.66;58.22;99600.06;7308118;19;130735;-36
2023/09/02 02:58:12;;;;;;;50.10;3.90;;;;;;;23.66;57.65;99599.22;7309698;19;129651;-35
2023/09/02 03:00:39;;;;;;;45.03;3.30;;;;;;;23.64;57.46;99594.13;7305534;19;129745;-36
2023/09/02 03:03:05;;;;;;;100.60;6.13;;;;;;;23.65;58.37;99598.38;7310011;19;129355;-37
2023/09/02 03:05:35;;;;;;;49.60;3.70;;;;;;;23.65;58.64;99594.97;7307177;19;130239;-37
2023/09/02 03:08:00;;;;;;;84.55;5.75;;;;;;;23.67;57.91;99599.06;7307839;19;131262;-35
2023/09/02 03:10:26;;;;;;;84.73;5.50;;;;;;;23.54;58.14;99575.03;7302260;19;130237;-37
2023/09/02 03:12:52;;;;;;;127.83;7.70;;;;;;;23.66;57.75;99605.31;7308625;19;129357;-37
2023/09/02 03:15:17;;;;;;;86.90;5.47;;;;;;;23.66;57.52;99600.06;7306349;19;130515;-33
2023/09/02 03:17:42;;;;;;;44.47;3.77;;;;;;;23.68;57.58;99603.38;7308360;19;130706;-37
2023/09/02 03:20:08;;;;;;;66.50;4.23;;;;;;;23.67;57.63;99606.16;7304328;19;130545;-39
2023/09/02 03:22:34;;;;;;;112.13;7.20;;;;;;;23.67;57.61;99606.16;7308385;19;129390;-36
2023/09/02 03:24:59;;;;;;;70.30;4.63;;;;;;;23.54;58.28;99585.53;7308249;19;130066;-36
2023/09/02 03:27:24;;;;;;;67.77;4.57;;;;;;;23.66;57.72;99607.94;7307874;19;129621;-35
2023/09/02 03:29:50;;;;;;;116.63;6.97;;;;;;;23.69;57.50;99604.16;7304148;19;129522;-35
2023/09/02 03:32:16;;;;;;;93.37;6.07;;;;;;;23.66;58.02;99605.31;7308106;19;129806;-38
2023/09/02 03:34:41;;;;;;;48.70;3.47;;;;;;;23.68;58.03;99613.88;7306722;19;130125;-37
2023/09/02 03:37:07;;;;;;;62.40;4.10;;;;;;;23.68;57.98;99608.63;7307981;19;130250;-38
2023/09/02 03:39:33;;;;;;;71.47;4.90;;;;;;;23.68;57.52;99613.03;7304791;19;129640;-36
2023/09/02 03:41:59;;;;;;;63.20;4.43;;;;;;;23.67;58.34;99606.94;7309219;19;129229;-36
2023/09/02 03:44:24;;;;;;;126.27;7.97;;;;;;;23.67;57.96;99606.94;7304242;19;130853;-35
2023/09/02 03:46:51;;;;;;;79.80;5.20;;;;;;;23.67;57.94;99612.19;7303335;19;129760;-37
2023/09/02 03:49:16;;;;;;;113.30;7.07;;;;;;;23.55;58.01;99596.84;7305681;19;129241;-38
2023/09/02 03:51:42;;;;;;;60.87;4.10;;;;;;;23.65;58.00;99619.38;7308379;19;130076;-36
2023/09/02 03:54:08;;;;;;;71.82;4.85;;;;;;;23.67;57.68;99621.91;7307501;19;130627;-36
2023/09/02 03:56:36;;;;;;;84.95;5.85;;;;;;;23.67;58.45;99619.25;7302962;19;130398;-37
2023/09/02 03:59:06;;;;;;;95.07;6.10;;;;;;;23.66;57.76;99614.97;7306112;19;129486;-35
2023/09/02 04:01:31;;;;;;;97.75;6.03;;;;;;;23.61;58.13;99602.31;7301852;19;130377;-37
2023/09/02 04:03:57;;;;;;;78.43;5.50;;;;;;;23.65;57.79;99611.53;7308278;19;129385;-33
2023/09/02 04:06:22;;;;;;;167.00;10.37;;;;;;;23.68;57.97;99619.13;7304223;19;129634;-39
2023/09/02 04:08:47;;;;;;;91.90;5.50;;;;;;;23.66;58.29;99620.22;7304768;19;130245;-35
2023/09/02 04:11:13;;;;;;;64.33;4.33;;;;;;;23.67;57.41;99630.56;7308506;19;129467;-38
2023/09/02 04:13:38;;;;;;;80.53;5.27;;;;;;;23.67;58.31;99637.66;7299113;19;129707;-37
2023/09/02 04:16:04;;;;;;;50.33;3.57;;;;;;;23.69;57.87;99636.50;7307064;19;130369;-36
2023/09/02 04:18:32;;;;;;;175.07;10.67;;;;;;;23.67;57.46;99638.44;7305338;19;128779;-38
2023/09/02 04:21:01;;;;;;;88.43;6.00;;;;;;;23.67;58.23;99648.13;7303849;19;129431;-38
2023/09/02 04:23:26;;;;;;;67.65;4.80;;;;;;;23.64;58.60;99646.63;7307154;19;129450;-36
2023/09/02 04:25:53;;;;;;;63.50;4.13;;;;;;;23.66;58.59;99651.72;7305503;19;129588;-34
2023/09/02 04:28:19;;;;;;;108.95;6.25;;;;;;;23.70;58.05;99655.72;7304750;19;129653;-38
2023/09/02 04:30:45;;;;;;;39.40;3.17;;;;;;;23.66;57.98;99657.81;7303491;19;132296;-38
2023/09/02 04:33:12;;;;;;;55.57;3.97;;;;;;;23.64;58.13;99659.75;7307115;19;130370;-35
2023/09/02 04:35:39;;;;;;;101.28;6.40;;;;;;;23.65;58.42;99660.59;7304379;19;130213;-36
2023/09/02 04:38:06;;;;;;;81.28;5.07;;;;;;;23.66;57.98;99663.06;7304691;19;130274;-36
2023/09/02 04:40:35;;;;;;;91.15;5.82;;;;;;;23.63;58.04;99663.38;7303582;19;129696;-37
2023/09/02 04:43:01;;;;;;;151.38;9.27;;;;;;;23.67;58.27;99664.69;7303203;19;129453;-35
2023/09/02 04:45:26;;;;;;;61.60;4.37;;;;;;;23.66;58.48;99673.56;7304830;19;130870;-38
2023/09/02 04:47:52;;;;;;;103.37;5.93;;;;;;;23.63;57.64;99668.63;7303972;19;129400;-39
2023/09/02 04:50:17;;;;;;;79.50;5.40;;;;;;;23.67;57.94;99683.06;7302182;19;130621;-38
2023/09/02 04:52:44;;;;;;;73.13;4.70;;;;;;;23.67;57.75;99675.19;7304266;19;130056;-37
2023/09/02 04:55:10;;;;;;;87.63;5.30;;;;;;;23.66;57.99;99684.06;7301013;19;130944;-34
2023/09/02 04:57:36;;;;;;;83.23;5.27;;;;;;;23.67;58.02;99680.44;7304176;19;129096;-38
2023/09/02 05:00:02;;;;;;;66.73;4.30;;;;;;;23.66;58.34;99683.22;7304518;19;130409;-35
2023/09/02 05:02:27;;;;;;;56.70;4.10;;;;;;;23.59;58.10;99677.75;7304788;19;130332;-38
2023/09/02 05:04:52;;;;;;;78.30;5.13;;;;;;;23.67;58.05;99690.13;7304508;19;129218;-37
2023/09/02 05:07:18;;;;;;;101.63;6.20;;;;;;;23.64;57.80;99686.00;7303288;19;129829;-37
2023/09/02 05:09:43;;;;;;;46.00;3.63;;;;;;;23.66;58.01;99694.56;7305399;19;129682;-33
2023/09/02 05:12:08;;;;;;;50.50;3.57;;;;;;;23.67;58.42;99684.91;7304991;19;131210;-35
2023/09/02 05:14:34;;;;;;;60.97;4.17;;;;;;;23.68;57.97;99690.00;7302028;19;129669;-32
2023/09/02 05:16:59;;;;;;;77.77;5.07;;;;;;;23.59;58.41;99677.75;7305971;19;130542;-37
2023/09/02 05:19:25;;;;;;;143.23;8.43;;;;;;;23.66;57.81;99688.47;7301576;19;129441;-34
2023/09/02 05:21:50;;;;;;;61.00;4.13;;;;;;;23.69;58.17;99698.66;7306125;19;129544;-33
2023/09/02 05:24:16;;;;;;;101.87;6.23;;;;;;;23.68;58.01;99699.66;7305581;19;129604;-33
2023/09/02 05:26:41;;;;;;;54.13;3.83;;;;;;;23.69;57.45;99702.13;7305756;19;129867;-36
2023/09/02 05:29:06;;;;;;;45.90;3.33;;;;;;;23.69;58.14;99703.91;7301203;19;129662;-34
2023/09/02 05:31:33;;;;;;;49.60;4.00;;;;;;;23.68;57.88;99702.28;7304590;19;129686;-36
2023/09/02 05:33:58;;;;;;;191.00;11.65;;;;;;;23.68;57.48;99708.38;7299840;19;129597;-37
2023/09/02 05:36:23;;;;;;;69.73;4.77;;;;;;;23.69;58.17;99710.00;7306111;19;129155;-37
2023/09/02 05:38:49;;;;;;;59.63;4.23;;;;;;;23.65;57.83;99706.00;7304003;19;129095;-34
2023/09/02 05:41:14;;;;;;;62.33;4.23;;;;;;;23.69;57.84;99714.41;7298746;19;129591;-37
2023/09/02 05:43:40;;;;;;;90.40;5.93;;;;;;;23.67;57.66;99714.56;7300411;19;130476;-38
2023/09/02 05:46:05;;;;;;;60.70;4.73;;;;;;;23.67;58.41;99711.94;7303610;19;129838;-36
2023/09/02 05:48:31;;;;;;;154.57;9.63;;;;;;;23.67;58.43;99716.38;7304149;19;129678;-37
2023/09/02 05:50:57;;;;;;;82.50;5.60;;;;;;;23.65;58.52;99719.13;7302601;19;130551;-37
2023/09/02 05:53:22;;;;;;;97.90;6.43;;;;;;;23.65;58.21;99719.13;7306049;19;130442;-36
2023/09/02 05:55:54;;;;;;;64.10;4.53;;;;;;;23.67;59.11;99721.63;7302484;19;130120;-35
2023/09/02 05:58:22;;;;;;;63.50;4.75;;;;;;;23.66;58.02;99726.06;7306316;19;129022;-36
2023/09/02 06:00:48;;;;;;;58.05;4.47;;;;;;;23.67;58.41;99726.88;7296698;19;131076;-32
2023/09/02 06:03:13;;;;;;;126.47;7.80;;;;;;;23.65;57.82;99729.63;7303349;19;131244;-38
2023/09/02 06:05:38;;;;;;;72.57;5.10;;;;;;;23.67;57.83;99726.88;7303055;19;129601;-37
2023/09/02 06:08:04;;;;;;;70.73;5.00;;;;;;;23.68;58.00;99739.88;7302541;19;128951;-38
2023/09/02 06:10:29;;;;;;;61.73;4.63;;;;;;;23.68;58.11;99739.88;7307544;19;130584;-33
2023/09/02 06:12:55;;;;;;;88.07;6.03;;;;;;;23.67;58.39;99743.44;7310722;19;129231;-38
2023/09/02 06:15:20;;;;;;;73.33;5.07;;;;;;;23.68;57.89;99739.88;7312262;19;130036;-34
2023/09/02 06:17:45;;;;;;;106.00;7.30;;;;;;;23.68;57.97;99744.28;7307607;19;130080;-36
2023/09/02 06:20:15;;;;;;;72.67;5.50;;;;;;;23.69;58.16;99748.53;7301130;19;129380;-36
2023/09/02 06:22:40;;;;;;;83.93;5.78;;;;;;;23.69;57.84;99743.28;7310376;19;130394;-37
2023/09/02 06:25:06;;;;;;;76.33;5.33;;;;;;;23.66;58.16;99741.81;7309127;19;129753;-40
2023/09/02 06:27:31;;;;;;;51.97;4.30;;;;;;;23.69;58.27;99741.50;7309288;19;129367;-38
2023/09/02 06:29:57;;;;;;;107.37;7.30;;;;;;;23.70;58.39;99743.13;7306658;19;131870;-37
2023/09/02 06:32:22;;;;;;;94.97;6.80;;;;;;;23.58;59.09;99731.22;7310877;19;129299;-36
2023/09/02 06:34:47;;;;;;;55.40;4.13;;;;;;;23.68;57.99;99753.00;7311094;19;129298;-35
2023/09/02 06:37:13;;;;;;;93.77;7.20;;;;;;;23.69;58.57;99753.78;7310670;19;129158;-37
2023/09/02 06:39:39;;;;;;;69.57;5.17;;;;;;;23.69;58.45;99761.66;7307450;19;130041;-35
2023/09/02 06:42:04;;;;;;;80.20;5.70;;;;;;;23.67;58.12;99759.19;7305562;19;129774;-37
2023/09/02 06:44:30;;;;;;;83.75;6.00;;;;;;;23.68;57.87;99758.25;7310230;19;128947;-40
2023/09/02 06:46:55;;;;;;;89.30;6.77;;;;;;;23.71;58.39;99760.56;7303880;19;131097;-36
2023/09/02 06:49:20;;;;;;;92.73;6.53;;;;;;;23.73;58.93;99757.78;7308511;19;129550;-34
2023/09/02 06:51:46;;;;;;;55.27;5.57;;;;;;;23.65;59.01;99742.75;7305249;19;131097;-38
2023/09/02 06:54:11;;;;;;;91.57;7.50;;;;;;;23.76;58.64;99768.81;7308405;19;129386;-36
2023/09/02 06:56:37;;;;;;;40.97;4.90;;;;;;;23.75;58.53;99761.91;7310507;19;129733;-37
2023/09/02 06:59:03;;;;;;;140.20;9.17;;;;;;;23.73;58.17;99761.25;7307766;19;129277;-39
2023/09/02 07:01:28;;;;;;;70.40;6.23;;;;;;;23.74;58.76;99765.50;7308940;19;129240;-38
2023/09/02 07:03:55;;;;;;;95.97;7.67;;;;;;;23.76;58.76;99774.06;7307432;19;129594;-37
2023/09/02 07:06:21;;;;;;;88.35;6.82;;;;;;;23.76;58.96;99773.22;7308173;19;131811;-34
2023/09/02 07:08:46;;;;;;;108.83;8.03;;;;;;;23.75;58.91;99777.66;7305801;19;132717;-36
2023/09/02 07:11:13;;;;;;;61.43;5.47;;;;;;;23.73;59.07;99790.13;7303775;19;129312;-36
2023/09/02 07:13:39;;;;;;;72.07;6.53;;;;;;;23.74;58.94;99786.50;7307201;19;130688;-35
2023/09/02 07:16:06;;;;;;;98.27;7.37;;;;;;;23.73;59.32;99795.38;7308972;19;129010;-36
2023/09/02 07:18:33;;;;;;;90.07;6.93;;;;;;;23.71;58.92;99796.47;7306039;19;130233;-35
2023/09/02 07:20:59;;;;;;;;;;;;;;;23.75;60.30;99801.28;7306552;19;130895;-36
2023/09/02 07:23:25;;;;;;;180.15;12.60;;;;;;;23.72;58.70;99803.38;7306054;19;129690;-36
2023/09/02 07:25:51;;;;;;;63.13;5.30;;;;;;;23.72;59.00;99804.19;7309611;19;129655;-36
2023/09/02 07:28:16;;;;;;;106.47;8.18;;;;;;;23.71;59.10;99807.81;7303665;19;130105;-33
2023/09/02 07:30:41;;;;;;;72.90;6.67;;;;;;;23.72;59.40;99806.81;7305689;19;129858;-35
2023/09/02 07:33:07;;;;;;;63.57;6.67;;;;;;;23.72;59.43;99814.69;7308001;19;129338;-38
2023/09/02 07:35:36;;;;;;;90.63;8.07;;;;;;;23.72;59.10;99808.63;7306347;19;129475;-34
2023/09/02 07:38:04;;;;;;;217.05;14.90;;;;;;;23.72;59.73;99808.63;7306523;19;130098;-35
2023/09/02 07:40:30;;;;;;;63.20;6.55;;;;;;;23.71;59.25;99806.97;7304296;19;130447;-34
2023/09/02 07:42:56;;;;;;;71.60;6.83;;;;;;;23.58;59.02;99796.00;7308885;19;130568;-34
2023/09/02 07:45:21;;;;;;;91.60;8.05;;;;;;;23.71;59.52;99820.09;7302351;19;129502;-36
2023/09/02 07:47:47;;;;;;;76.23;7.00;;;;;;;23.70;58.71;99827.16;7309815;19;129533;-36
2023/09/02 07:50:12;;;;;;;111.97;8.73;;;;;;;23.61;59.25;99807.03;7303305;19;131739;-37
2023/09/02 07:52:38;;;;;;;108.77;8.73;;;;;;;23.69;59.32;99825.50;7304479;19;129181;-35
2023/09/02 07:55:03;;;;;;;99.83;7.53;;;;;;;23.55;59.57;99802.38;7307954;19;129167;-32
2023/09/02 07:57:30;;;;;;;87.07;6.70;;;;;;;23.68;59.02;99821.25;7303920;19;129644;-35
2023/09/02 07:59:56;;;;;;;63.22;5.95;;;;;;;23.68;59.05;99831.75;7307338;19;130486;-38
2023/09/02 08:02:22;;;;;;;49.30;5.33;;;;;;;23.68;58.99;99831.75;7308472;19;129486;-35
2023/09/02 08:04:47;;;;;;;95.80;7.37;;;;;;;23.69;59.51;99829.91;7305506;19;129641;-36
2023/09/02 08:07:13;;;;;;;85.88;6.63;;;;;;;23.68;59.46;99826.50;7309240;19;129477;-37
2023/09/02 08:09:38;;;;;;;158.57;11.63;;;;;;;23.66;59.64;99825.81;7300751;19;129792;-36
2023/09/02 08:12:04;;;;;;;68.88;5.65;;;;;;;23.70;59.17;99831.59;7302222;19;131181;-36
2023/09/02 08:14:29;;;;;;;131.90;9.17;;;;;;;23.69;59.26;99830.75;7304601;19;129996;-35
2023/09/02 08:16:54;;;;;;;62.73;5.40;;;;;;;23.68;58.78;99842.25;7307319;19;129711;-37
2023/09/02 08:19:20;;;;;;;59.90;5.33;;;;;;;23.62;59.31;99848.06;7305143;19;130282;-38
2023/09/02 08:21:45;;;;;;;45.50;4.50;;;;;;;23.62;59.27;99842.00;7301959;19;129261;-37
2023/09/02 08:24:10;;;;;;;110.53;7.47;;;;;;;23.60;58.99;99846.56;7306368;19;129364;-36
2023/09/02 08:26:36;;;;;;;53.40;4.43;;;;;;;23.49;59.50;99844.13;7308212;19;130219;-36
2023/09/02 08:29:01;;;;;;;73.57;5.53;;;;;;;23.60;58.83;99862.31;7305352;19;129604;-34
2023/09/02 08:31:26;;;;;;;65.57;5.47;;;;;;;23.63;59.21;99862.03;7306957;19;129300;-36
2023/09/02 08:33:52;;;;;;;101.13;6.40;;;;;;;23.62;58.79;99855.13;7306003;19;128848;-35
2023/09/02 08:36:17;;;;;;;68.67;5.17;;;;;;;23.64;59.41;99863.66;7305732;19;129688;-37
2023/09/02 08:38:43;;;;;;;131.80;8.83;;;;;;;23.63;58.99;99862.84;7305224;19;130379;-35
2023/09/02 08:41:15;;;;;;;88.93;5.97;;;;;;;23.63;59.16;99868.09;7301630;19;130850;-37
2023/09/02 08:43:42;;;;;;;120.72;7.50;;;;;;;23.64;58.85;99864.50;7303186;19;129474;-36
2023/09/02 08:46:09;;;;;;;77.13;5.47;;;;;;;23.51;58.99;99848.25;7293274;19;131438;-38
2023/09/02 08:48:40;;;;;;;48.55;3.85;;;;;;;23.63;59.66;99868.09;7305423;19;130054;-36
2023/09/02 08:51:06;;;;;;;94.93;7.05;;;;;;;23.63;58.71;99870.72;7298202;19;129874;-34
2023/09/02 08:53:32;;;;;;;136.77;9.17;;;;;;;23.63;59.05;99873.34;7300715;19;129252;-38
2023/09/02 08:56:00;;;;;;;117.20;7.60;;;;;;;23.65;59.65;99876.63;7300010;19;129786;-36
2023/09/02 08:58:27;;;;;;;69.72;4.68;;;;;;;23.66;58.54;99878.31;7304764;19;130498;-38
2023/09/02 09:00:53;;;;;;;71.45;5.07;;;;;;;23.64;59.29;99871.53;7301235;19;129374;-38
2023/09/02 09:03:19;;;;;;;132.87;8.17;;;;;;;23.66;58.94;99880.09;7303929;19;129566;-35
2023/09/02 09:05:48;;;;;;;87.50;5.95;;;;;;;23.54;59.18;99863.72;7301823;19;129310;-38
2023/09/02 09:08:14;;;;;;;165.20;11.23;;;;;;;23.65;58.65;99887.13;7300422;19;129645;-37
2023/09/02 09:10:42;;;;;;;166.32;10.48;;;;;;;23.65;58.66;99892.38;7288460;19;129773;-35
2023/09/02 09:13:11;;;;;;;131.43;7.72;;;;;;;23.65;59.38;99889.75;7298876;19;129621;-35
2023/09/02 09:15:37;;;;;;;121.72;7.60;;;;;;;23.67;58.87;99895.69;7293210;19;130215;-36
2023/09/02 09:18:03;;;;;;;116.53;7.30;;;;;;;23.53;58.70;99877.81;7299046;19;132295;-36
2023/09/02 09:20:30;;;;;;;51.33;3.97;;;;;;;23.64;59.14;99901.25;7299492;19;129311;-34
2023/09/02 09:22:56;;;;;;;150.82;9.20;;;;;;;23.67;59.06;99900.94;7298537;19;130248;-36
2023/09/02 09:25:21;;;;;;;94.77;6.67;;;;;;;23.68;59.53;99902.63;7300604;19;130329;-35
2023/09/02 09:27:48;;;;;;;73.23;5.33;;;;;;;23.69;59.06;99899.00;7302421;19;130374;-33
2023/09/02 09:30:30;;;;;;;71.35;5.28;;;;;;;23.57;60.37;99884.41;7296366;19;129799;-36
2023/09/02 09:33:04;;;;;;;104.20;7.13;;;;;;;23.72;60.47;99903.13;7300646;19;129886;-41
2023/09/02 09:35:30;;;;;;;158.13;9.88;;;;;;;23.72;58.82;99909.22;7299700;19;130262;-36
2023/09/02 09:37:56;;;;;;;69.33;4.90;;;;;;;23.71;58.80;99906.75;7304101;19;130205;-37
2023/09/02 09:40:35;;;;;;;84.30;5.85;;;;;;;23.61;60.48;99892.81;7300637;19;131853;-37
2023/09/02 09:43:12;;;;;;;47.33;3.80;;;;;;;23.72;59.35;99903.97;7306347;19;129344;-37
2023/09/02 09:45:49;;;;;;;74.85;5.50;;;;;;;23.70;59.86;99916.41;7305184;19;131580;-35
2023/09/02 09:48:14;;;;;;;132.47;9.33;;;;;;;23.68;59.21;99913.13;7309299;19;129372;-37
2023/09/02 09:50:39;;;;;;;102.20;6.87;;;;;;;23.70;58.57;99916.41;7312359;19;129537;-35
2023/09/02 09:53:05;;;;;;;89.20;6.40;;;;;;;23.72;58.90;99924.97;7308679;19;129741;-36
2023/09/02 09:55:31;;;;;;;50.93;4.47;;;;;;;23.70;58.47;99926.91;7309705;19;130174;-37
2023/09/02 09:57:58;;;;;;;80.07;5.63;;;;;;;23.71;58.69;99919.88;7303829;19;130949;-34
2023/09/02 10:00:24;;;;;;;115.78;7.97;;;;;;;23.72;58.59;99930.22;7301866;19;130990;-35
2023/09/02 10:02:51;;;;;;;71.45;5.63;;;;;;;23.59;58.63;99908.72;7311393;19;128961;-37
2023/09/02 10:05:24;;;;;;;59.85;5.18;;;;;;;23.69;59.55;99930.50;7308015;19;129867;-37
2023/09/02 10:08:06;;;;;;;94.78;7.20;;;;;;;23.69;59.60;99925.25;7306807;19;130837;-34
2023/09/02 10:10:38;;;;;;;111.90;7.70;;;;;;;23.69;59.72;99934.94;7301679;19;130572;-34
2023/09/02 10:13:04;;;;;;;144.60;9.10;;;;;;;23.69;58.94;99927.03;7302692;19;130470;-37
2023/09/02 10:15:31;;;;;;;87.25;6.25;;;;;;;23.67;58.76;99927.19;7305161;19;130278;-36
2023/09/02 10:18:01;;;;;;;72.75;5.13;;;;;;;23.69;59.56;99935.75;7303277;19;130441;-38
2023/09/02 10:20:29;;;;;;;101.07;7.07;;;;;;;23.70;58.48;99929.53;7302855;19;129852;-35
2023/09/02 10:23:03;;;;;;;115.55;7.47;;;;;;;23.66;59.67;99920.31;7304395;19;129387;-38
2023/09/02 10:25:29;;;;;;;73.20;5.45;;;;;;;23.74;59.06;99937.94;7305843;19;130822;-37
2023/09/02 10:28:05;;;;;;;100.67;6.60;;;;;;;23.76;60.35;99942.09;7308285;19;130837;-35
2023/09/02 10:30:46;;;;;;;55.20;4.00;;;;;;;23.76;59.74;99941.25;7308721;19;129004;-36
2023/09/02 10:33:20;;;;;;;149.90;9.90;;;;;;;23.77;59.78;99938.47;7306689;19;129847;-34
2023/09/02 10:35:57;;;;;;;99.35;6.20;;;;;;;23.75;59.76;99945.69;7300584;19;130814;-36
2023/09/02 10:38:24;;;;;;;111.80;6.97;;;;;;;23.75;59.37;99943.03;7306912;19;131403;-35
2023/09/02 10:40:57;;;;;;;82.15;5.47;;;;;;;23.77;59.85;99946.38;7306252;19;129693;-35
2023/09/02 10:43:24;;;;;;;81.20;5.30;;;;;;;23.66;59.39;99930.81;7307903;19;129727;-35
2023/09/02 10:45:50;;;;;;;94.97;6.10;;;;;;;23.76;59.00;99947.34;7305477;19;130183;-39
2023/09/02 10:48:17;;;;;;;93.87;6.37;;;;;;;23.78;59.04;99948.03;7305613;19;129244;-37
2023/09/02 10:50:43;;;;;;;112.25;7.15;;;;;;;23.77;59.13;99951.63;7304642;19;130107;-40
2023/09/02 10:53:08;;;;;;;87.10;5.73;;;;;;;23.67;58.96;99937.69;7302553;19;129247;-39
2023/09/02 10:55:57;;;;;;;90.83;6.00;;;;;;;23.71;60.19;99957.44;7300881;19;129811;-38
2023/09/02 10:58:23;;;;;;;93.95;5.68;;;;;;;23.70;59.38;99950.53;7302773;19;130098;-36
2023/09/02 11:00:52;;;;;;;85.50;5.37;;;;;;;23.74;59.81;99948.44;7303351;19;129392;-38
2023/09/02 11:03:41;;;;;;;127.30;7.68;;;;;;;23.75;61.06;99955.38;7304161;19;130163;-35
2023/09/02 11:06:07;;;;;;;129.57;7.63;;;;;;;23.74;59.51;99958.94;7302777;19;129667;-37
2023/09/02 11:08:49;;;;;;;90.77;6.37;;;;;;;23.74;60.41;99961.56;7307489;19;131072;-35
2023/09/02 11:11:16;;;;;;;99.85;6.15;;;;;;;23.72;59.60;99961.72;7302959;19;129309;-37
2023/09/02 11:14:07;;;;;;;83.22;5.43;;;;;;;23.71;60.23;99975.84;7306010;19;129593;-33